sensor_id;sensor_type;location;lat;lon;timestamp;P1;durP1;ratioP1;P2;durP2;ratioP2
71814;SDS011;59659;41.520;23.794;2023-03-29T00:01:01;1.98;;;0.98;;
71814;SDS011;59659;41.520;23.794;2023-03-29T00:02:13;0.70;;;0.70;;
71814;SDS011;59659;41.520;23.794;2023-03-29T00:03:25;0.95;;;0.70;;
71814;SDS011;59659;41.520;23.794;2023-03-29T00:04:37;0.60;;;0.60;;
71814;SDS011;59659;41.520;23.794;2023-03-29T00:05:49;0.57;;;0.57;;
71814;SDS011;59659;41.520;23.794;2023-03-29T00:07:01;0.73;;;0.63;;
71814;SDS011;59659;41.520;23.794;2023-03-29T00:08:14;0.70;;;0.50;;
71814;SDS011;59659;41.520;23.794;2023-03-29T00:09:29;0.40;;;0.40;;
71814;SDS011;59659;41.520;23.794;2023-03-29T00:10:42;1.48;;;0.50;;
71814;SDS011;59659;41.520;23.794;2023-03-29T00:11:53;0.95;;;0.60;;
71814;SDS011;59659;41.520;23.794;2023-03-29T00:13:05;0.95;;;0.70;;
71814;SDS011;59659;41.520;23.794;2023-03-29T00:14:16;0.45;;;0.45;;
71814;SDS011;59659;41.520;23.794;2023-03-29T00:15:27;1.20;;;0.50;;
71814;SDS011;59659;41.520;23.794;2023-03-29T00:16:39;3.17;;;0.77;;
71814;SDS011;59659;41.520;23.794;2023-03-29T00:17:50;2.45;;;0.70;;
71814;SDS011;59659;41.520;23.794;2023-03-29T00:19:02;0.68;;;0.50;;
71814;SDS011;59659;41.520;23.794;2023-03-29T00:20:14;1.10;;;0.70;;
71814;SDS011;59659;41.520;23.794;2023-03-29T00:21:26;0.60;;;0.60;;
71814;SDS011;59659;41.520;23.794;2023-03-29T00:22:39;0.90;;;0.90;;
71814;SDS011;59659;41.520;23.794;2023-03-29T00:23:52;0.60;;;0.60;;
71814;SDS011;59659;41.520;23.794;2023-03-29T00:25:04;0.82;;;0.82;;
71814;SDS011;59659;41.520;23.794;2023-03-29T00:26:17;0.60;;;0.52;;
71814;SDS011;59659;41.520;23.794;2023-03-29T00:27:28;0.50;;;0.50;;
71814;SDS011;59659;41.520;23.794;2023-03-29T00:28:40;1.88;;;0.90;;
71814;SDS011;59659;41.520;23.794;2023-03-29T00:29:52;1.20;;;1.10;;
71814;SDS011;59659;41.520;23.794;2023-03-29T00:31:08;1.10;;;1.00;;
71814;SDS011;59659;41.520;23.794;2023-03-29T00:32:20;0.85;;;0.82;;
71814;SDS011;59659;41.520;23.794;2023-03-29T00:33:32;1.83;;;0.80;;
71814;SDS011;59659;41.520;23.794;2023-03-29T00:34:43;2.75;;;1.00;;
71814;SDS011;59659;41.520;23.794;2023-03-29T00:35:56;3.25;;;1.13;;
71814;SDS011;59659;41.520;23.794;2023-03-29T00:37:07;2.17;;;1.48;;
71814;SDS011;59659;41.520;23.794;2023-03-29T00:38:20;1.42;;;1.20;;
71814;SDS011;59659;41.520;23.794;2023-03-29T00:39:32;1.42;;;1.08;;
71814;SDS011;59659;41.520;23.794;2023-03-29T00:40:44;1.40;;;0.80;;
71814;SDS011;59659;41.520;23.794;2023-03-29T00:41:57;5.25;;;1.80;;
71814;SDS011;59659;41.520;23.794;2023-03-29T00:43:09;1.80;;;1.33;;
71814;SDS011;59659;41.520;23.794;2023-03-29T00:45:51;1.30;;;0.98;;
71814;SDS011;59659;41.520;23.794;2023-03-29T00:47:03;1.23;;;1.13;;
71814;SDS011;59659;41.520;23.794;2023-03-29T00:48:22;0.82;;;0.82;;
71814;SDS011;59659;41.520;23.794;2023-03-29T00:49:36;1.95;;;0.90;;
71814;SDS011;59659;41.520;23.794;2023-03-29T00:50:49;1.20;;;0.70;;
71814;SDS011;59659;41.520;23.794;2023-03-29T00:52:03;0.65;;;0.63;;
71814;SDS011;59659;41.520;23.794;2023-03-29T00:54:32;1.20;;;0.80;;
71814;SDS011;59659;41.520;23.794;2023-03-29T00:55:46;1.00;;;1.00;;
71814;SDS011;59659;41.520;23.794;2023-03-29T00:56:58;1.35;;;0.80;;
71814;SDS011;59659;41.520;23.794;2023-03-29T00:58:15;1.55;;;1.00;;
71814;SDS011;59659;41.520;23.794;2023-03-29T00:59:28;0.95;;;0.85;;
71814;SDS011;59659;41.520;23.794;2023-03-29T01:00:49;1.20;;;1.10;;
71814;SDS011;59659;41.520;23.794;2023-03-29T01:02:03;0.80;;;0.80;;
71814;SDS011;59659;41.520;23.794;2023-03-29T01:03:15;0.77;;;0.77;;
71814;SDS011;59659;41.520;23.794;2023-03-29T01:05:55;1.10;;;0.70;;
71814;SDS011;59659;41.520;23.794;2023-03-29T01:07:15;1.02;;;0.93;;
71814;SDS011;59659;41.520;23.794;2023-03-29T01:08:36;1.83;;;1.05;;
71814;SDS011;59659;41.520;23.794;2023-03-29T01:09:53;0.70;;;0.70;;
71814;SDS011;59659;41.520;23.794;2023-03-29T01:12:50;2.30;;;1.38;;
71814;SDS011;59659;41.520;23.794;2023-03-29T01:14:04;0.80;;;0.80;;
71814;SDS011;59659;41.520;23.794;2023-03-29T01:15:17;1.48;;;1.30;;
71814;SDS011;59659;41.520;23.794;2023-03-29T01:16:31;1.10;;;1.00;;
71814;SDS011;59659;41.520;23.794;2023-03-29T01:17:43;5.55;;;0.90;;
71814;SDS011;59659;41.520;23.794;2023-03-29T01:19:00;1.40;;;1.10;;
71814;SDS011;59659;41.520;23.794;2023-03-29T01:20:14;0.90;;;0.90;;
71814;SDS011;59659;41.520;23.794;2023-03-29T01:21:29;1.23;;;1.13;;
71814;SDS011;59659;41.520;23.794;2023-03-29T01:22:48;1.15;;;0.90;;
71814;SDS011;59659;41.520;23.794;2023-03-29T01:26:49;2.08;;;1.08;;
71814;SDS011;59659;41.520;23.794;2023-03-29T01:29:33;0.82;;;0.82;;
71814;SDS011;59659;41.520;23.794;2023-03-29T01:30:49;1.88;;;1.02;;
71814;SDS011;59659;41.520;23.794;2023-03-29T01:32:04;1.52;;;0.50;;
71814;SDS011;59659;41.520;23.794;2023-03-29T01:33:26;2.78;;;1.33;;
71814;SDS011;59659;41.520;23.794;2023-03-29T01:37:23;0.80;;;0.68;;
71814;SDS011;59659;41.520;23.794;2023-03-29T01:38:37;1.02;;;0.75;;
71814;SDS011;59659;41.520;23.794;2023-03-29T01:39:50;1.13;;;1.05;;
71814;SDS011;59659;41.520;23.794;2023-03-29T01:41:02;1.05;;;0.80;;
71814;SDS011;59659;41.520;23.794;2023-03-29T01:45:08;1.13;;;1.00;;
71814;SDS011;59659;41.520;23.794;2023-03-29T01:48:53;1.83;;;1.35;;
71814;SDS011;59659;41.520;23.794;2023-03-29T01:53:27;0.80;;;0.80;;
71814;SDS011;59659;41.520;23.794;2023-03-29T01:54:21;1.52;;;1.00;;
71814;SDS011;59659;41.520;23.794;2023-03-29T01:55:34;1.10;;;1.00;;
71814;SDS011;59659;41.520;23.794;2023-03-29T01:56:48;1.08;;;0.88;;
71814;SDS011;59659;41.520;23.794;2023-03-29T01:58:00;0.73;;;0.73;;
71814;SDS011;59659;41.520;23.794;2023-03-29T01:59:14;0.88;;;0.88;;
71814;SDS011;59659;41.520;23.794;2023-03-29T02:00:27;0.77;;;0.68;;
71814;SDS011;59659;41.520;23.794;2023-03-29T02:01:41;1.67;;;1.52;;
71814;SDS011;59659;41.520;23.794;2023-03-29T02:02:56;2.05;;;1.23;;
71814;SDS011;59659;41.520;23.794;2023-03-29T02:04:11;1.55;;;1.05;;
71814;SDS011;59659;41.520;23.794;2023-03-29T02:05:23;1.38;;;1.17;;
71814;SDS011;59659;41.520;23.794;2023-03-29T02:06:36;2.60;;;1.20;;
71814;SDS011;59659;41.520;23.794;2023-03-29T02:07:49;1.20;;;1.10;;
71814;SDS011;59659;41.520;23.794;2023-03-29T02:09:02;1.55;;;1.05;;
71814;SDS011;59659;41.520;23.794;2023-03-29T02:10:14;1.50;;;1.40;;
71814;SDS011;59659;41.520;23.794;2023-03-29T02:11:26;1.45;;;1.35;;
71814;SDS011;59659;41.520;23.794;2023-03-29T02:12:39;2.83;;;1.95;;
71814;SDS011;59659;41.520;23.794;2023-03-29T02:13:51;3.22;;;2.50;;
71814;SDS011;59659;41.520;23.794;2023-03-29T02:15:04;5.47;;;4.43;;
71814;SDS011;59659;41.520;23.794;2023-03-29T02:16:17;8.10;;;5.28;;
71814;SDS011;59659;41.520;23.794;2023-03-29T02:17:29;7.63;;;4.15;;
71814;SDS011;59659;41.520;23.794;2023-03-29T02:18:41;8.55;;;4.03;;
71814;SDS011;59659;41.520;23.794;2023-03-29T02:19:59;4.53;;;3.17;;
71814;SDS011;59659;41.520;23.794;2023-03-29T02:21:23;5.20;;;3.38;;
71814;SDS011;59659;41.520;23.794;2023-03-29T02:22:37;5.90;;;2.38;;
71814;SDS011;59659;41.520;23.794;2023-03-29T02:23:51;4.80;;;2.95;;
71814;SDS011;59659;41.520;23.794;2023-03-29T02:25:05;3.40;;;1.45;;
71814;SDS011;59659;41.520;23.794;2023-03-29T02:26:19;2.63;;;1.90;;
71814;SDS011;59659;41.520;23.794;2023-03-29T02:27:31;1.88;;;1.55;;
71814;SDS011;59659;41.520;23.794;2023-03-29T02:28:42;1.60;;;1.20;;
71814;SDS011;59659;41.520;23.794;2023-03-29T02:29:54;1.50;;;1.23;;
71814;SDS011;59659;41.520;23.794;2023-03-29T02:31:13;9.10;;;1.80;;
71814;SDS011;59659;41.520;23.794;2023-03-29T02:32:33;1.08;;;1.00;;
71814;SDS011;59659;41.520;23.794;2023-03-29T02:34:05;1.13;;;0.90;;
71814;SDS011;59659;41.520;23.794;2023-03-29T02:35:25;1.50;;;1.15;;
71814;SDS011;59659;41.520;23.794;2023-03-29T02:37:53;2.75;;;1.30;;
71814;SDS011;59659;41.520;23.794;2023-03-29T02:39:06;1.20;;;1.10;;
71814;SDS011;59659;41.520;23.794;2023-03-29T02:40:20;1.52;;;1.25;;
71814;SDS011;59659;41.520;23.794;2023-03-29T02:41:31;1.08;;;1.08;;
71814;SDS011;59659;41.520;23.794;2023-03-29T02:42:44;1.55;;;0.95;;
71814;SDS011;59659;41.520;23.794;2023-03-29T02:43:58;1.77;;;0.80;;
71814;SDS011;59659;41.520;23.794;2023-03-29T02:45:11;1.25;;;1.15;;
71814;SDS011;59659;41.520;23.794;2023-03-29T02:46:24;1.15;;;1.00;;
71814;SDS011;59659;41.520;23.794;2023-03-29T02:47:37;1.20;;;1.10;;
71814;SDS011;59659;41.520;23.794;2023-03-29T02:48:51;2.75;;;1.50;;
71814;SDS011;59659;41.520;23.794;2023-03-29T02:50:04;2.00;;;1.15;;
71814;SDS011;59659;41.520;23.794;2023-03-29T02:51:18;1.67;;;1.20;;
71814;SDS011;59659;41.520;23.794;2023-03-29T02:52:33;1.88;;;1.48;;
71814;SDS011;59659;41.520;23.794;2023-03-29T02:53:51;1.27;;;1.13;;
71814;SDS011;59659;41.520;23.794;2023-03-29T02:55:03;2.25;;;1.65;;
71814;SDS011;59659;41.520;23.794;2023-03-29T02:56:19;1.88;;;1.35;;
71814;SDS011;59659;41.520;23.794;2023-03-29T02:57:30;1.10;;;0.90;;
71814;SDS011;59659;41.520;23.794;2023-03-29T02:58:42;1.98;;;1.13;;
71814;SDS011;59659;41.520;23.794;2023-03-29T02:59:54;1.75;;;1.10;;
71814;SDS011;59659;41.520;23.794;2023-03-29T03:01:07;2.53;;;1.58;;
71814;SDS011;59659;41.520;23.794;2023-03-29T03:02:19;2.38;;;1.50;;
71814;SDS011;59659;41.520;23.794;2023-03-29T03:03:31;1.63;;;1.30;;
71814;SDS011;59659;41.520;23.794;2023-03-29T03:04:43;2.67;;;1.90;;
71814;SDS011;59659;41.520;23.794;2023-03-29T03:05:54;1.38;;;1.17;;
71814;SDS011;59659;41.520;23.794;2023-03-29T03:07:06;1.38;;;1.00;;
71814;SDS011;59659;41.520;23.794;2023-03-29T03:08:18;2.03;;;1.30;;
71814;SDS011;59659;41.520;23.794;2023-03-29T03:09:30;3.28;;;1.67;;
71814;SDS011;59659;41.520;23.794;2023-03-29T03:10:41;2.30;;;1.85;;
71814;SDS011;59659;41.520;23.794;2023-03-29T03:11:52;1.52;;;1.25;;
71814;SDS011;59659;41.520;23.794;2023-03-29T03:13:04;4.50;;;2.00;;
71814;SDS011;59659;41.520;23.794;2023-03-29T03:14:15;6.60;;;2.05;;
71814;SDS011;59659;41.520;23.794;2023-03-29T03:15:28;5.45;;;3.17;;
71814;SDS011;59659;41.520;23.794;2023-03-29T03:16:41;3.58;;;3.00;;
71814;SDS011;59659;41.520;23.794;2023-03-29T03:17:53;3.33;;;2.30;;
71814;SDS011;59659;41.520;23.794;2023-03-29T03:19:05;3.78;;;2.28;;
71814;SDS011;59659;41.520;23.794;2023-03-29T03:20:17;4.75;;;2.42;;
71814;SDS011;59659;41.520;23.794;2023-03-29T03:21:28;2.17;;;1.98;;
71814;SDS011;59659;41.520;23.794;2023-03-29T03:22:41;4.90;;;1.70;;
71814;SDS011;59659;41.520;23.794;2023-03-29T03:23:52;1.67;;;1.35;;
71814;SDS011;59659;41.520;23.794;2023-03-29T03:25:07;2.15;;;1.30;;
71814;SDS011;59659;41.520;23.794;2023-03-29T03:26:21;1.42;;;1.33;;
71814;SDS011;59659;41.520;23.794;2023-03-29T03:27:33;0.82;;;0.82;;
71814;SDS011;59659;41.520;23.794;2023-03-29T03:28:44;3.75;;;1.70;;
71814;SDS011;59659;41.520;23.794;2023-03-29T03:29:56;3.92;;;1.38;;
71814;SDS011;59659;41.520;23.794;2023-03-29T03:31:07;3.28;;;1.90;;
71814;SDS011;59659;41.520;23.794;2023-03-29T03:32:18;1.73;;;1.30;;
71814;SDS011;59659;41.520;23.794;2023-03-29T03:33:30;1.67;;;1.23;;
71814;SDS011;59659;41.520;23.794;2023-03-29T03:34:42;2.28;;;1.10;;
71814;SDS011;59659;41.520;23.794;2023-03-29T03:35:53;1.45;;;1.35;;
71814;SDS011;59659;41.520;23.794;2023-03-29T03:37:07;1.52;;;1.42;;
71814;SDS011;59659;41.520;23.794;2023-03-29T03:38:18;2.97;;;1.67;;
71814;SDS011;59659;41.520;23.794;2023-03-29T03:39:30;1.23;;;1.13;;
71814;SDS011;59659;41.520;23.794;2023-03-29T03:40:41;2.85;;;1.42;;
71814;SDS011;59659;41.520;23.794;2023-03-29T03:41:53;1.33;;;1.23;;
71814;SDS011;59659;41.520;23.794;2023-03-29T03:43:04;1.23;;;1.13;;
71814;SDS011;59659;41.520;23.794;2023-03-29T03:44:16;1.75;;;1.25;;
71814;SDS011;59659;41.520;23.794;2023-03-29T03:45:28;1.75;;;1.20;;
71814;SDS011;59659;41.520;23.794;2023-03-29T03:46:40;1.90;;;1.15;;
71814;SDS011;59659;41.520;23.794;2023-03-29T03:47:51;2.08;;;1.23;;
71814;SDS011;59659;41.520;23.794;2023-03-29T03:49:03;11.90;;;3.30;;
71814;SDS011;59659;41.520;23.794;2023-03-29T03:50:14;11.43;;;4.93;;
71814;SDS011;59659;41.520;23.794;2023-03-29T03:51:26;5.93;;;3.28;;
71814;SDS011;59659;41.520;23.794;2023-03-29T03:52:37;5.15;;;3.13;;
71814;SDS011;59659;41.520;23.794;2023-03-29T03:53:49;3.10;;;1.70;;
71814;SDS011;59659;41.520;23.794;2023-03-29T03:55:01;2.15;;;1.23;;
71814;SDS011;59659;41.520;23.794;2023-03-29T03:56:14;2.22;;;1.35;;
71814;SDS011;59659;41.520;23.794;2023-03-29T03:57:26;1.45;;;1.35;;
71814;SDS011;59659;41.520;23.794;2023-03-29T03:58:37;1.10;;;1.00;;
71814;SDS011;59659;41.520;23.794;2023-03-29T03:59:49;3.15;;;2.10;;
71814;SDS011;59659;41.520;23.794;2023-03-29T04:01:02;5.13;;;2.83;;
71814;SDS011;59659;41.520;23.794;2023-03-29T04:02:14;2.45;;;2.15;;
71814;SDS011;59659;41.520;23.794;2023-03-29T04:03:26;3.40;;;2.53;;
71814;SDS011;59659;41.520;23.794;2023-03-29T04:04:38;1.92;;;1.70;;
71814;SDS011;59659;41.520;23.794;2023-03-29T04:05:51;3.03;;;1.90;;
71814;SDS011;59659;41.520;23.794;2023-03-29T04:07:03;3.42;;;2.58;;
71814;SDS011;59659;41.520;23.794;2023-03-29T04:08:15;2.22;;;1.90;;
71814;SDS011;59659;41.520;23.794;2023-03-29T04:09:29;2.85;;;2.30;;
71814;SDS011;59659;41.520;23.794;2023-03-29T04:10:41;6.45;;;3.13;;
71814;SDS011;59659;41.520;23.794;2023-03-29T04:11:53;10.80;;;4.50;;
71814;SDS011;59659;41.520;23.794;2023-03-29T04:13:04;11.82;;;4.90;;
71814;SDS011;59659;41.520;23.794;2023-03-29T04:14:16;6.63;;;4.28;;
71814;SDS011;59659;41.520;23.794;2023-03-29T04:15:28;5.85;;;3.63;;
71814;SDS011;59659;41.520;23.794;2023-03-29T04:16:39;14.73;;;5.80;;
71814;SDS011;59659;41.520;23.794;2023-03-29T04:17:50;8.73;;;3.75;;
71814;SDS011;59659;41.520;23.794;2023-03-29T04:19:02;9.55;;;4.18;;
71814;SDS011;59659;41.520;23.794;2023-03-29T04:20:14;6.60;;;3.50;;
71814;SDS011;59659;41.520;23.794;2023-03-29T04:21:25;2.85;;;2.08;;
71814;SDS011;59659;41.520;23.794;2023-03-29T04:22:39;3.17;;;2.17;;
71814;SDS011;59659;41.520;23.794;2023-03-29T04:23:51;4.32;;;2.25;;
71814;SDS011;59659;41.520;23.794;2023-03-29T04:25:03;4.47;;;2.70;;
71814;SDS011;59659;41.520;23.794;2023-03-29T04:26:15;3.92;;;2.33;;
71814;SDS011;59659;41.520;23.794;2023-03-29T04:27:28;2.50;;;1.63;;
71814;SDS011;59659;41.520;23.794;2023-03-29T04:28:39;8.55;;;3.42;;
71814;SDS011;59659;41.520;23.794;2023-03-29T04:29:51;4.78;;;2.08;;
71814;SDS011;59659;41.520;23.794;2023-03-29T04:31:02;4.30;;;2.58;;
71814;SDS011;59659;41.520;23.794;2023-03-29T04:32:15;4.18;;;2.50;;
71814;SDS011;59659;41.520;23.794;2023-03-29T04:33:26;3.80;;;2.80;;
71814;SDS011;59659;41.520;23.794;2023-03-29T04:34:39;5.38;;;2.80;;
71814;SDS011;59659;41.520;23.794;2023-03-29T04:35:51;5.97;;;4.00;;
71814;SDS011;59659;41.520;23.794;2023-03-29T04:37:03;5.95;;;3.17;;
71814;SDS011;59659;41.520;23.794;2023-03-29T04:38:20;4.95;;;2.67;;
71814;SDS011;59659;41.520;23.794;2023-03-29T04:39:33;3.05;;;2.22;;
71814;SDS011;59659;41.520;23.794;2023-03-29T04:40:45;6.50;;;3.35;;
71814;SDS011;59659;41.520;23.794;2023-03-29T04:41:56;3.28;;;2.03;;
71814;SDS011;59659;41.520;23.794;2023-03-29T04:43:08;6.63;;;2.70;;
71814;SDS011;59659;41.520;23.794;2023-03-29T04:44:19;5.18;;;2.83;;
71814;SDS011;59659;41.520;23.794;2023-03-29T04:45:31;2.85;;;2.42;;
71814;SDS011;59659;41.520;23.794;2023-03-29T04:46:44;3.85;;;2.30;;
71814;SDS011;59659;41.520;23.794;2023-03-29T04:47:56;3.55;;;2.65;;
71814;SDS011;59659;41.520;23.794;2023-03-29T04:49:09;6.55;;;2.17;;
71814;SDS011;59659;41.520;23.794;2023-03-29T04:50:21;5.57;;;2.47;;
71814;SDS011;59659;41.520;23.794;2023-03-29T04:51:33;6.25;;;3.00;;
71814;SDS011;59659;41.520;23.794;2023-03-29T04:52:44;4.45;;;1.48;;
71814;SDS011;59659;41.520;23.794;2023-03-29T04:53:56;3.22;;;1.40;;
71814;SDS011;59659;41.520;23.794;2023-03-29T04:55:07;3.20;;;2.05;;
71814;SDS011;59659;41.520;23.794;2023-03-29T04:56:19;2.78;;;1.25;;
71814;SDS011;59659;41.520;23.794;2023-03-29T04:57:31;1.67;;;1.55;;
71814;SDS011;59659;41.520;23.794;2023-03-29T04:58:42;2.22;;;1.75;;
71814;SDS011;59659;41.520;23.794;2023-03-29T04:59:54;3.20;;;1.83;;
71814;SDS011;59659;41.520;23.794;2023-03-29T05:01:06;2.38;;;1.98;;
71814;SDS011;59659;41.520;23.794;2023-03-29T05:02:18;5.75;;;2.45;;
71814;SDS011;59659;41.520;23.794;2023-03-29T05:03:29;3.47;;;2.40;;
71814;SDS011;59659;41.520;23.794;2023-03-29T05:04:41;2.95;;;1.80;;
71814;SDS011;59659;41.520;23.794;2023-03-29T05:05:53;2.80;;;1.88;;
71814;SDS011;59659;41.520;23.794;2023-03-29T05:07:04;3.38;;;2.47;;
71814;SDS011;59659;41.520;23.794;2023-03-29T05:08:18;5.20;;;2.95;;
71814;SDS011;59659;41.520;23.794;2023-03-29T05:09:30;2.10;;;1.80;;
71814;SDS011;59659;41.520;23.794;2023-03-29T05:10:45;6.82;;;4.80;;
71814;SDS011;59659;41.520;23.794;2023-03-29T05:12:00;4.30;;;3.55;;
71814;SDS011;59659;41.520;23.794;2023-03-29T05:13:12;12.77;;;6.20;;
71814;SDS011;59659;41.520;23.794;2023-03-29T05:14:23;12.02;;;5.03;;
71814;SDS011;59659;41.520;23.794;2023-03-29T05:15:35;7.75;;;4.88;;
71814;SDS011;59659;41.520;23.794;2023-03-29T05:16:46;10.90;;;4.82;;
71814;SDS011;59659;41.520;23.794;2023-03-29T05:17:58;6.35;;;3.97;;
71814;SDS011;59659;41.520;23.794;2023-03-29T05:19:11;10.52;;;5.25;;
71814;SDS011;59659;41.520;23.794;2023-03-29T05:20:23;9.10;;;6.28;;
71814;SDS011;59659;41.520;23.794;2023-03-29T05:21:37;7.15;;;5.60;;
71814;SDS011;59659;41.520;23.794;2023-03-29T05:22:50;5.63;;;5.07;;
71814;SDS011;59659;41.520;23.794;2023-03-29T05:24:01;5.45;;;3.80;;
71814;SDS011;59659;41.520;23.794;2023-03-29T05:25:13;6.90;;;4.45;;
71814;SDS011;59659;41.520;23.794;2023-03-29T05:26:27;7.70;;;5.30;;
71814;SDS011;59659;41.520;23.794;2023-03-29T05:27:38;10.02;;;4.60;;
71814;SDS011;59659;41.520;23.794;2023-03-29T05:28:52;4.82;;;3.63;;
71814;SDS011;59659;41.520;23.794;2023-03-29T05:30:03;5.20;;;3.25;;
71814;SDS011;59659;41.520;23.794;2023-03-29T05:31:15;7.30;;;4.43;;
71814;SDS011;59659;41.520;23.794;2023-03-29T05:32:27;9.00;;;3.92;;
71814;SDS011;59659;41.520;23.794;2023-03-29T05:33:39;6.78;;;4.60;;
71814;SDS011;59659;41.520;23.794;2023-03-29T05:34:50;6.00;;;4.15;;
71814;SDS011;59659;41.520;23.794;2023-03-29T05:36:04;5.15;;;3.88;;
71814;SDS011;59659;41.520;23.794;2023-03-29T05:37:16;8.68;;;4.53;;
71814;SDS011;59659;41.520;23.794;2023-03-29T05:38:28;8.43;;;3.65;;
71814;SDS011;59659;41.520;23.794;2023-03-29T05:39:40;4.65;;;2.80;;
71814;SDS011;59659;41.520;23.794;2023-03-29T05:40:54;5.93;;;3.78;;
71814;SDS011;59659;41.520;23.794;2023-03-29T05:42:06;4.65;;;2.65;;
71814;SDS011;59659;41.520;23.794;2023-03-29T05:43:21;6.07;;;3.22;;
71814;SDS011;59659;41.520;23.794;2023-03-29T05:44:32;2.95;;;2.25;;
71814;SDS011;59659;41.520;23.794;2023-03-29T05:45:44;3.60;;;2.35;;
71814;SDS011;59659;41.520;23.794;2023-03-29T05:46:56;4.80;;;3.20;;
71814;SDS011;59659;41.520;23.794;2023-03-29T05:48:09;4.63;;;3.30;;
71814;SDS011;59659;41.520;23.794;2023-03-29T05:49:23;5.38;;;4.03;;
71814;SDS011;59659;41.520;23.794;2023-03-29T05:50:35;15.80;;;6.82;;
71814;SDS011;59659;41.520;23.794;2023-03-29T05:51:47;9.30;;;4.95;;
71814;SDS011;59659;41.520;23.794;2023-03-29T05:52:59;5.78;;;2.90;;
71814;SDS011;59659;41.520;23.794;2023-03-29T05:54:10;7.20;;;3.63;;
71814;SDS011;59659;41.520;23.794;2023-03-29T05:55:22;11.77;;;3.17;;
71814;SDS011;59659;41.520;23.794;2023-03-29T05:56:34;3.60;;;2.38;;
71814;SDS011;59659;41.520;23.794;2023-03-29T05:57:47;4.13;;;3.10;;
71814;SDS011;59659;41.520;23.794;2023-03-29T05:58:58;4.18;;;3.28;;
71814;SDS011;59659;41.520;23.794;2023-03-29T06:00:12;4.35;;;1.98;;
71814;SDS011;59659;41.520;23.794;2023-03-29T06:01:32;4.32;;;2.67;;
71814;SDS011;59659;41.520;23.794;2023-03-29T06:02:46;2.53;;;2.22;;
71814;SDS011;59659;41.520;23.794;2023-03-29T06:03:58;2.35;;;2.05;;
71814;SDS011;59659;41.520;23.794;2023-03-29T06:05:12;3.95;;;2.88;;
71814;SDS011;59659;41.520;23.794;2023-03-29T06:06:24;2.45;;;2.22;;
71814;SDS011;59659;41.520;23.794;2023-03-29T06:07:38;4.15;;;2.35;;
71814;SDS011;59659;41.520;23.794;2023-03-29T06:08:50;5.15;;;2.45;;
71814;SDS011;59659;41.520;23.794;2023-03-29T06:10:02;3.08;;;2.55;;
71814;SDS011;59659;41.520;23.794;2023-03-29T06:11:15;4.03;;;2.30;;
71814;SDS011;59659;41.520;23.794;2023-03-29T06:12:29;2.85;;;2.47;;
71814;SDS011;59659;41.520;23.794;2023-03-29T06:13:41;3.97;;;2.20;;
71814;SDS011;59659;41.520;23.794;2023-03-29T06:14:52;4.22;;;2.33;;
71814;SDS011;59659;41.520;23.794;2023-03-29T06:16:05;4.22;;;2.50;;
71814;SDS011;59659;41.520;23.794;2023-03-29T06:17:16;2.65;;;2.10;;
71814;SDS011;59659;41.520;23.794;2023-03-29T06:18:29;2.35;;;1.95;;
71814;SDS011;59659;41.520;23.794;2023-03-29T06:19:40;2.15;;;1.40;;
71814;SDS011;59659;41.520;23.794;2023-03-29T06:20:52;8.93;;;1.60;;
71814;SDS011;59659;41.520;23.794;2023-03-29T06:22:04;3.60;;;2.75;;
71814;SDS011;59659;41.520;23.794;2023-03-29T06:23:16;8.43;;;3.88;;
71814;SDS011;59659;41.520;23.794;2023-03-29T06:24:27;3.35;;;2.17;;
71814;SDS011;59659;41.520;23.794;2023-03-29T06:25:39;5.13;;;2.90;;
71814;SDS011;59659;41.520;23.794;2023-03-29T06:26:50;3.60;;;2.20;;
71814;SDS011;59659;41.520;23.794;2023-03-29T06:28:02;3.53;;;2.20;;
71814;SDS011;59659;41.520;23.794;2023-03-29T06:29:14;5.22;;;2.25;;
71814;SDS011;59659;41.520;23.794;2023-03-29T06:30:28;1.65;;;1.48;;
71814;SDS011;59659;41.520;23.794;2023-03-29T06:31:40;4.88;;;2.08;;
71814;SDS011;59659;41.520;23.794;2023-03-29T06:32:52;4.70;;;2.58;;
71814;SDS011;59659;41.520;23.794;2023-03-29T06:34:04;2.67;;;1.80;;
71814;SDS011;59659;41.520;23.794;2023-03-29T06:35:16;4.82;;;2.38;;
71814;SDS011;59659;41.520;23.794;2023-03-29T06:36:28;4.15;;;2.13;;
71814;SDS011;59659;41.520;23.794;2023-03-29T06:37:40;3.53;;;2.33;;
71814;SDS011;59659;41.520;23.794;2023-03-29T06:38:59;7.55;;;3.33;;
71814;SDS011;59659;41.520;23.794;2023-03-29T06:40:17;5.57;;;1.48;;
71814;SDS011;59659;41.520;23.794;2023-03-29T06:41:31;2.72;;;1.75;;
71814;SDS011;59659;41.520;23.794;2023-03-29T06:42:43;2.00;;;1.42;;
71814;SDS011;59659;41.520;23.794;2023-03-29T06:43:56;5.18;;;2.88;;
71814;SDS011;59659;41.520;23.794;2023-03-29T06:45:08;1.63;;;1.50;;
71814;SDS011;59659;41.520;23.794;2023-03-29T06:46:19;2.55;;;1.40;;
71814;SDS011;59659;41.520;23.794;2023-03-29T06:47:34;3.15;;;1.63;;
71814;SDS011;59659;41.520;23.794;2023-03-29T06:48:45;2.63;;;2.00;;
71814;SDS011;59659;41.520;23.794;2023-03-29T06:49:58;4.28;;;2.30;;
71814;SDS011;59659;41.520;23.794;2023-03-29T06:51:10;1.25;;;0.98;;
71814;SDS011;59659;41.520;23.794;2023-03-29T06:52:21;4.35;;;2.28;;
71814;SDS011;59659;41.520;23.794;2023-03-29T06:53:33;6.53;;;3.20;;
71814;SDS011;59659;41.520;23.794;2023-03-29T06:54:44;4.63;;;2.85;;
71814;SDS011;59659;41.520;23.794;2023-03-29T06:55:59;4.03;;;2.53;;
71814;SDS011;59659;41.520;23.794;2023-03-29T06:57:15;14.40;;;2.97;;
71814;SDS011;59659;41.520;23.794;2023-03-29T06:58:26;2.20;;;1.42;;
71814;SDS011;59659;41.520;23.794;2023-03-29T06:59:40;2.60;;;1.92;;
71814;SDS011;59659;41.520;23.794;2023-03-29T07:00:51;2.78;;;1.70;;
71814;SDS011;59659;41.520;23.794;2023-03-29T07:02:05;3.50;;;0.90;;
71814;SDS011;59659;41.520;23.794;2023-03-29T07:03:17;1.90;;;1.70;;
71814;SDS011;59659;41.520;23.794;2023-03-29T07:04:33;1.30;;;1.15;;
71814;SDS011;59659;41.520;23.794;2023-03-29T07:05:45;1.92;;;1.42;;
71814;SDS011;59659;41.520;23.794;2023-03-29T07:06:57;1.77;;;1.35;;
71814;SDS011;59659;41.520;23.794;2023-03-29T07:08:12;1.63;;;1.02;;
71814;SDS011;59659;41.520;23.794;2023-03-29T07:09:24;0.75;;;0.75;;
71814;SDS011;59659;41.520;23.794;2023-03-29T07:10:37;0.70;;;0.70;;
71814;SDS011;59659;41.520;23.794;2023-03-29T07:11:49;0.88;;;0.47;;
71814;SDS011;59659;41.520;23.794;2023-03-29T07:13:01;0.80;;;0.80;;
71814;SDS011;59659;41.520;23.794;2023-03-29T07:14:13;1.08;;;0.98;;
71814;SDS011;59659;41.520;23.794;2023-03-29T07:15:24;0.80;;;0.80;;
71814;SDS011;59659;41.520;23.794;2023-03-29T07:16:36;0.77;;;0.63;;
71814;SDS011;59659;41.520;23.794;2023-03-29T07:17:50;1.50;;;0.88;;
71814;SDS011;59659;41.520;23.794;2023-03-29T07:19:02;5.10;;;2.28;;
71814;SDS011;59659;41.520;23.794;2023-03-29T07:20:14;6.00;;;2.28;;
71814;SDS011;59659;41.520;23.794;2023-03-29T07:21:25;2.55;;;1.67;;
71814;SDS011;59659;41.520;23.794;2023-03-29T07:22:39;1.77;;;1.40;;
71814;SDS011;59659;41.520;23.794;2023-03-29T07:23:51;0.95;;;0.63;;
71814;SDS011;59659;41.520;23.794;2023-03-29T07:25:05;0.70;;;0.70;;
71814;SDS011;59659;41.520;23.794;2023-03-29T07:26:20;1.17;;;1.08;;
71814;SDS011;59659;41.520;23.794;2023-03-29T07:27:40;1.27;;;1.13;;
71814;SDS011;59659;41.520;23.794;2023-03-29T07:28:52;1.23;;;0.73;;
71814;SDS011;59659;41.520;23.794;2023-03-29T07:30:04;1.17;;;1.00;;
71814;SDS011;59659;41.520;23.794;2023-03-29T07:31:19;1.30;;;0.88;;
71814;SDS011;59659;41.520;23.794;2023-03-29T07:32:31;1.52;;;1.25;;
71814;SDS011;59659;41.520;23.794;2023-03-29T07:33:44;4.32;;;2.25;;
71814;SDS011;59659;41.520;23.794;2023-03-29T07:34:59;1.33;;;1.08;;